Time;durP1;ratioP1;P1;durP2;ratioP2;P2;SDS_P1;SDS_P2;PMS_P1;PMS_P2;Temp;Humidity;BMP_temperature;BMP_pressure;BME280_temperature;BME280_humidity;BME280_pressure;Samples;Min_cycle;Max_cycle;Signal;HPM_P1;HPM_P2
2021/10/18 00:01:43;;;;;;;30.52;14.02;;;9.50;97.30;;;;;;4981263;28;20057;-70
2021/10/18 00:04:08;;;;;;;31.60;15.48;;;9.50;97.50;;;;;;4990559;28;20058;-70
2021/10/18 00:06:34;;;;;;;32.50;15.90;;;9.50;97.80;;;;;;4993712;28;20026;-71
2021/10/18 00:09:00;;;;;;;33.30;15.95;;;9.50;97.80;;;;;;4991223;28;20064;-71
2021/10/18 00:11:26;;;;;;;32.90;15.30;;;9.50;97.60;;;;;;4989672;28;20394;-70
2021/10/18 00:13:53;;;;;;;34.47;16.30;;;9.50;97.60;;;;;;4965146;28;20597;-70
2021/10/18 00:16:18;;;;;;;33.00;16.70;;;9.60;97.60;;;;;;4978596;28;20038;-70
2021/10/18 00:18:44;;;;;;;35.90;16.75;;;9.50;97.40;;;;;;4993721;28;20019;-70
2021/10/18 00:21:10;;;;;;;31.88;15.02;;;9.50;97.40;;;;;;4993566;28;20022;-69
2021/10/18 00:23:36;;;;;;;38.22;16.60;;;9.50;97.50;;;;;;4990553;28;20347;-70
2021/10/18 00:26:02;;;;;;;35.63;16.73;;;9.40;97.50;;;;;;4991189;28;20026;-71
2021/10/18 00:28:28;;;;;;;35.67;15.80;;;9.40;97.50;;;;;;4989555;28;20052;-70
2021/10/18 00:30:53;;;;;;;33.60;16.15;;;9.40;97.60;;;;;;4982569;28;20480;-69
2021/10/18 00:33:19;;;;;;;35.28;15.88;;;9.40;97.70;;;;;;4959281;28;20491;-71
2021/10/18 00:35:45;;;;;;;36.33;17.30;;;9.50;97.70;;;;;;4974114;28;20076;-71
2021/10/18 00:38:11;;;;;;;35.88;16.63;;;9.50;97.70;;;;;;4995556;28;20023;-70
2021/10/18 00:40:36;;;;;;;31.13;15.38;;;9.50;97.70;;;;;;4990599;28;20058;-70
2021/10/18 00:43:02;;;;;;;34.15;16.17;;;9.50;97.70;;;;;;4989709;28;20430;-69
2021/10/18 00:45:28;;;;;;;36.08;15.85;;;9.50;97.60;;;;;;4997362;28;20022;-70
2021/10/18 00:47:54;;;;;;;34.28;15.35;;;9.40;97.60;;;;;;4997016;28;20030;-70
2021/10/18 00:50:19;;;;;;;38.53;17.02;;;9.40;97.80;;;;;;4986096;28;20044;-71
2021/10/18 00:52:45;;;;;;;32.60;15.43;;;9.40;97.70;;;;;;4988579;28;20022;-70
2021/10/18 00:55:12;;;;;;;34.42;15.15;;;9.40;97.70;;;;;;4997130;28;20026;-70
2021/10/18 00:57:38;;;;;;;36.53;15.38;;;9.50;97.80;;;;;;4992572;28;20045;-70
2021/10/18 01:00:06;;;;;;;33.28;15.70;;;9.50;97.90;;;;;;5000540;28;20033;-70
2021/10/18 01:02:31;;;;;;;31.58;15.48;;;9.50;97.80;;;;;;4990241;28;20103;-70
2021/10/18 01:04:57;;;;;;;34.00;16.50;;;9.50;97.90;;;;;;4989743;28;20123;-69
2021/10/18 01:07:23;;;;;;;35.90;16.08;;;9.50;97.80;;;;;;4996947;28;20034;-71
2021/10/18 01:09:49;;;;;;;30.10;13.90;;;9.50;97.80;;;;;;4974237;28;20471;-70
2021/10/18 01:12:14;;;;;;;36.90;15.80;;;9.60;97.80;;;;;;4983362;28;20038;-69
2021/10/18 01:14:40;;;;;;;33.60;16.42;;;9.60;97.90;;;;;;4993218;28;20123;-70
2021/10/18 01:17:06;;;;;;;27.13;13.95;;;9.60;97.80;;;;;;4988196;28;20037;-70
2021/10/18 01:19:32;;;;;;;33.40;15.75;;;9.60;97.80;;;;;;4996735;28;20030;-70
2021/10/18 01:22:02;;;;;;;33.47;16.05;;;9.60;97.80;;;;;;4990253;28;20072;-70
2021/10/18 01:24:29;;;;;;;35.05;16.33;;;9.50;97.70;;;;;;4974456;28;20113;-69
2021/10/18 01:26:55;;;;;;;39.47;16.95;;;9.50;97.70;;;;;;4991524;28;20809;-69
2021/10/18 01:29:21;;;;;;;37.88;15.32;;;9.50;97.70;;;;;;4990931;28;20030;-69
2021/10/18 01:31:47;;;;;;;36.97;16.85;;;9.50;97.80;;;;;;4990621;28;20153;-71
2021/10/18 01:34:13;;;;;;;36.03;17.13;;;9.50;97.90;;;;;;4971405;28;20058;-69
2021/10/18 01:36:39;;;;;;;37.67;16.48;;;9.50;97.80;;;;;;4989651;28;20058;-71
2021/10/18 01:39:05;;;;;;;34.83;15.75;;;9.40;97.70;;;;;;4976174;28;20033;-71
2021/10/18 01:41:30;;;;;;;43.05;18.52;;;9.40;97.80;;;;;;4988050;28;20118;-71
2021/10/18 01:43:56;;;;;;;36.95;16.00;;;9.40;97.90;;;;;;4987021;28;20030;-70
2021/10/18 01:46:22;;;;;;;38.70;17.42;;;9.40;97.90;;;;;;4994508;28;20474;-70
2021/10/18 01:48:47;;;;;;;38.00;17.17;;;9.40;97.90;;;;;;4997143;28;20034;-69
2021/10/18 01:51:13;;;;;;;39.65;17.77;;;9.40;97.90;;;;;;5001326;28;20083;-70
2021/10/18 01:53:38;;;;;;;37.78;16.55;;;9.40;97.90;;;;;;4991091;28;20022;-70
2021/10/18 01:56:05;;;;;;;36.03;16.63;;;9.30;97.80;;;;;;4985121;28;20045;-70
2021/10/18 01:58:32;;;;;;;39.63;17.45;;;9.30;97.80;;;;;;4978198;28;20114;-70
2021/10/18 02:01:02;;;;;;;36.83;16.77;;;9.30;98.00;;;;;;5003798;28;20026;-70
2021/10/18 02:03:27;;;;;;;37.58;16.92;;;9.30;98.20;;;;;;4973172;28;20122;-71
2021/10/18 02:05:53;;;;;;;44.50;18.27;;;9.30;98.00;;;;;;4975344;28;20121;-71
2021/10/18 02:08:18;;;;;;;37.63;17.27;;;9.30;98.10;;;;;;5007261;28;20486;-70
2021/10/18 02:10:44;;;;;;;38.55;16.40;;;9.30;98.10;;;;;;4996645;28;20026;-70
2021/10/18 02:13:10;;;;;;;35.42;16.98;;;9.30;98.30;;;;;;4987989;28;20177;-69
2021/10/18 02:15:36;;;;;;;38.70;16.92;;;9.30;98.10;;;;;;4997865;28;20038;-70
2021/10/18 02:18:02;;;;;;;36.08;16.50;;;9.30;98.10;;;;;;4998916;28;20030;-70
2021/10/18 02:20:28;;;;;;;39.75;18.20;;;9.30;98.20;;;;;;4990818;28;20684;-70
2021/10/18 02:22:54;;;;;;;36.90;16.92;;;9.40;98.20;;;;;;4992373;28;20034;-70
2021/10/18 02:25:19;;;;;;;34.17;14.88;;;9.30;98.10;;;;;;4998997;28;20030;-70
2021/10/18 02:27:45;;;;;;;35.97;16.80;;;9.30;98.10;;;;;;4992703;28;20026;-70
2021/10/18 02:30:11;;;;;;;41.78;18.02;;;9.30;98.20;;;;;;5000463;28;20029;-69
2021/10/18 02:32:38;;;;;;;32.90;16.60;;;9.30;98.10;;;;;;4991278;28;20426;-70
2021/10/18 02:35:05;;;;;;;39.33;17.33;;;9.30;98.10;;;;;;4995849;28;20049;-70
2021/10/18 02:37:31;;;;;;;33.67;15.88;;;9.30;98.20;;;;;;4992912;28;20101;-70
2021/10/18 02:39:57;;;;;;;38.58;16.48;;;9.30;98.20;;;;;;4991969;28;20109;-69
2021/10/18 02:42:22;;;;;;;38.63;17.88;;;9.30;98.20;;;;;;4974324;28;20064;-69
2021/10/18 02:44:48;;;;;;;34.63;15.80;;;9.40;98.30;;;;;;4989911;28;20403;-70
2021/10/18 02:47:13;;;;;;;38.45;16.52;;;9.40;98.30;;;;;;4994155;28;20026;-70
2021/10/18 02:49:39;;;;;;;39.20;17.63;;;9.40;98.30;;;;;;4992232;28;20125;-69
2021/10/18 02:52:05;;;;;;;35.70;16.50;;;9.40;98.30;;;;;;4992382;28;20034;-69
2021/10/18 02:54:31;;;;;;;42.30;16.92;;;9.40;98.20;;;;;;4998966;28;20037;-70
2021/10/18 02:56:56;;;;;;;40.25;17.05;;;9.40;98.20;;;;;;4994812;28;20229;-70
2021/10/18 02:59:22;;;;;;;46.90;17.85;;;9.40;98.20;;;;;;4993136;28;20105;-70
2021/10/18 03:01:48;;;;;;;42.17;17.75;;;9.30;98.30;;;;;;5006171;28;20037;-70
2021/10/18 03:04:13;;;;;;;41.20;18.10;;;9.30;98.40;;;;;;4998401;28;20030;-70
2021/10/18 03:06:39;;;;;;;41.58;16.63;;;9.40;98.40;;;;;;4975019;28;20034;-70
2021/10/18 03:09:06;;;;;;;44.40;18.80;;;9.40;98.30;;;;;;4992061;28;20164;-70
2021/10/18 03:11:31;;;;;;;38.15;16.67;;;9.30;98.30;;;;;;4993649;28;20030;-70
2021/10/18 03:13:57;;;;;;;40.63;17.10;;;9.30;98.30;;;;;;4997491;28;20026;-70
2021/10/18 03:16:22;;;;;;;36.22;16.58;;;9.30;98.30;;;;;;4996666;28;20141;-70
2021/10/18 03:18:48;;;;;;;40.35;17.52;;;9.30;98.30;;;;;;4993141;28;20340;-70
2021/10/18 03:21:14;;;;;;;44.92;17.38;;;9.30;98.30;;;;;;4993030;28;20097;-70
2021/10/18 03:23:40;;;;;;;38.13;16.45;;;9.30;98.30;;;;;;4990452;28;20061;-70
2021/10/18 03:26:05;;;;;;;43.10;16.55;;;9.30;98.40;;;;;;4992491;28;20061;-70
2021/10/18 03:28:31;;;;;;;42.65;17.77;;;9.30;98.40;;;;;;4990244;28;20022;-71
2021/10/18 03:30:57;;;;;;;44.35;17.58;;;9.30;98.40;;;;;;4977995;28;20025;-69
2021/10/18 03:33:22;;;;;;;41.35;17.83;;;9.30;98.30;;;;;;4990668;28;20048;-70
2021/10/18 03:35:49;;;;;;;38.05;16.52;;;9.20;98.30;;;;;;4991678;28;20035;-70
2021/10/18 03:38:15;;;;;;;42.13;17.17;;;9.20;98.30;;;;;;4991688;28;20114;-70
2021/10/18 03:40:41;;;;;;;37.58;16.60;;;9.20;98.30;;;;;;5010593;23;20095;-65
2021/10/18 03:43:06;;;;;;;41.88;17.55;;;9.20;98.40;;;;;;5005026;28;20026;-67
2021/10/18 03:45:32;;;;;;;46.42;16.55;;;9.20;98.50;;;;;;5006142;28;20026;-66
2021/10/18 03:47:57;;;;;;;41.67;17.55;;;9.20;98.40;;;;;;5007264;28;20033;-66
2021/10/18 03:50:23;;;;;;;40.55;16.77;;;9.20;98.40;;;;;;4999048;28;20474;-66
2021/10/18 03:52:48;;;;;;;41.72;17.85;;;9.20;98.40;;;;;;5005981;28;20462;-66
2021/10/18 03:55:14;;;;;;;33.42;15.60;;;9.20;98.40;;;;;;5009443;28;20026;-66
2021/10/18 03:57:40;;;;;;;41.53;17.90;;;9.20;98.40;;;;;;4996774;28;20151;-66
2021/10/18 04:00:07;;;;;;;37.85;17.25;;;9.20;98.40;;;;;;5005628;28;20034;-66
2021/10/18 04:02:33;;;;;;;44.17;17.73;;;9.20;98.50;;;;;;4991633;28;20034;-64
2021/10/18 04:04:58;;;;;;;42.47;17.55;;;9.20;98.50;;;;;;4992979;28;20036;-66
2021/10/18 04:07:24;;;;;;;39.33;17.30;;;9.20;98.50;;;;;;4992968;28;20106;-66
2021/10/18 04:09:50;;;;;;;34.58;15.60;;;9.20;98.50;;;;;;5000479;28;20029;-66
2021/10/18 04:12:15;;;;;;;41.15;17.23;;;9.10;98.50;;;;;;5008490;28;20041;-65
2021/10/18 04:14:41;;;;;;;34.70;16.17;;;9.20;98.60;;;;;;4998167;28;20029;-66
2021/10/18 04:17:06;;;;;;;39.03;16.08;;;9.20;98.60;;;;;;5011737;28;20550;-64
2021/10/18 04:19:32;;;;;;;38.50;16.13;;;9.20;98.60;;;;;;5005911;28;20478;-64
2021/10/18 04:21:58;;;;;;;38.15;15.68;;;9.20;98.50;;;;;;5005070;28;20045;-64
2021/10/18 04:24:23;;;;;;;37.63;16.38;;;9.20;98.50;;;;;;5009503;28;20519;-64
2021/10/18 04:26:49;;;;;;;40.08;16.75;;;9.20;98.60;;;;;;5009554;28;20771;-64
2021/10/18 04:29:14;;;;;;;35.30;15.93;;;9.20;98.60;;;;;;5007475;28;20362;-64
2021/10/18 04:31:40;;;;;;;37.60;16.15;;;9.30;98.60;;;;;;5001913;28;20022;-64
2021/10/18 04:34:06;;;;;;;37.55;16.05;;;9.30;98.50;;;;;;4998856;28;20031;-66
2021/10/18 04:36:31;;;;;;;38.75;16.80;;;9.30;98.80;;;;;;5006339;28;20417;-66
2021/10/18 04:38:57;;;;;;;36.92;16.35;;;9.30;98.60;;;;;;5001619;28;20121;-65
2021/10/18 04:41:23;;;;;;;42.53;16.40;;;9.30;98.50;;;;;;5005157;28;20354;-66
2021/10/18 04:43:49;;;;;;;34.03;15.02;;;9.30;98.50;;;;;;4998445;28;20034;-66
2021/10/18 04:46:15;;;;;;;32.03;14.52;;;9.20;98.30;;;;;;5001760;28;20038;-68
2021/10/18 04:48:41;;;;;;;33.63;15.23;;;9.30;98.50;;;;;;4998051;28;20087;-66
2021/10/18 04:51:07;;;;;;;33.35;15.00;;;9.20;98.40;;;;;;4996593;28;20034;-67
2021/10/18 04:53:32;;;;;;;40.13;17.23;;;9.30;98.40;;;;;;5007247;28;20062;-67
2021/10/18 04:55:58;;;;;;;33.92;15.82;;;9.20;98.40;;;;;;4992578;28;20038;-66
2021/10/18 04:58:24;;;;;;;32.47;14.73;;;9.20;98.40;;;;;;4996290;28;20042;-66
2021/10/18 05:00:55;;;;;;;33.75;15.20;;;9.20;98.50;;;;;;5000636;28;20153;-66
2021/10/18 05:03:20;;;;;;;34.25;15.55;;;9.20;98.50;;;;;;5004503;28;20625;-62
2021/10/18 05:05:46;;;;;;;33.72;16.15;;;9.20;98.50;;;;;;4991047;28;20030;-65
2021/10/18 05:08:13;;;;;;;32.95;15.70;;;9.20;98.40;;;;;;4999591;28;20089;-65
2021/10/18 05:10:43;;;;;;;34.97;15.23;;;9.20;98.30;;;;;;5005076;28;20037;-66
2021/10/18 05:13:10;;;;;;;30.75;14.40;;;9.10;98.20;;;;;;5011966;28;20071;-69
2021/10/18 05:15:36;;;;;;;31.58;14.50;;;9.10;98.10;;;;;;5006832;28;20030;-68
2021/10/18 05:18:03;;;;;;;32.60;14.98;;;9.10;98.10;;;;;;4996627;28;20533;-65
2021/10/18 05:20:30;;;;;;;33.90;14.98;;;9.00;98.20;;;;;;5002131;28;20042;-65
2021/10/18 05:22:56;;;;;;;31.70;15.38;;;9.00;98.20;;;;;;5007094;28;20023;-64
2021/10/18 05:25:22;;;;;;;32.15;15.13;;;9.00;98.20;;;;;;5006641;28;20053;-69
2021/10/18 05:27:47;;;;;;;30.27;15.40;;;8.90;98.20;;;;;;5003794;28;20066;-67
2021/10/18 05:30:13;;;;;;;29.55;13.93;;;8.90;98.30;;;;;;5001940;28;20099;-65
2021/10/18 05:32:39;;;;;;;32.70;15.07;;;8.90;98.20;;;;;;4991174;28;20054;-66
2021/10/18 05:35:06;;;;;;;36.08;16.42;;;8.90;98.20;;;;;;5003170;28;20038;-65
2021/10/18 05:37:32;;;;;;;34.60;16.33;;;8.90;98.30;;;;;;5006180;28;20030;-69
2021/10/18 05:39:58;;;;;;;36.53;15.90;;;8.80;98.30;;;;;;5010599;28;20071;-69
2021/10/18 05:42:23;;;;;;;36.40;15.35;;;8.90;98.40;;;;;;4998024;28;20542;-66
2021/10/18 05:44:49;;;;;;;30.52;15.85;;;8.90;98.70;;;;;;5009868;28;20088;-65
2021/10/18 05:47:14;;;;;;;32.53;16.13;;;8.90;98.50;;;;;;4995418;28;20049;-66
2021/10/18 05:49:40;;;;;;;33.13;15.00;;;8.90;98.50;;;;;;4991218;28;20039;-67
2021/10/18 05:52:06;;;;;;;28.75;14.77;;;8.90;98.50;;;;;;5004308;28;20037;-66
2021/10/18 05:54:32;;;;;;;36.20;16.98;;;8.90;98.50;;;;;;5010078;28;20623;-66
2021/10/18 05:56:57;;;;;;;34.78;15.90;;;8.90;98.40;;;;;;4999047;28;20041;-65
2021/10/18 05:59:23;;;;;;;33.92;14.90;;;8.90;98.30;;;;;;4989818;28;20018;-65
2021/10/18 06:01:49;;;;;;;32.15;15.07;;;8.90;98.30;;;;;;5000764;28;20068;-67
2021/10/18 06:04:14;;;;;;;33.70;15.95;;;8.90;98.30;;;;;;5008642;28;20109;-69
2021/10/18 06:06:40;;;;;;;37.60;16.90;;;8.90;98.30;;;;;;5008645;28;20121;-65
2021/10/18 06:09:06;;;;;;;34.63;16.23;;;8.90;98.40;;;;;;5005416;28;20036;-66
2021/10/18 06:11:32;;;;;;;32.65;16.25;;;8.90;98.40;;;;;;5009729;28;20110;-66
2021/10/18 06:13:59;;;;;;;28.83;14.75;;;8.90;98.40;;;;;;5009702;28;20096;-70
2021/10/18 06:16:25;;;;;;;30.60;15.43;;;8.90;98.40;;;;;;5007386;28;20038;-66
2021/10/18 06:18:51;;;;;;;31.15;15.00;;;8.90;98.40;;;;;;4990672;28;20026;-70
2021/10/18 06:21:16;;;;;;;38.17;17.30;;;9.00;98.40;;;;;;4992112;28;20486;-65
2021/10/18 06:23:43;;;;;;;34.50;16.73;;;8.90;98.30;;;;;;4990204;28;20023;-66
2021/10/18 06:26:10;;;;;;;32.53;15.68;;;9.00;98.50;;;;;;5018935;28;20478;-70
2021/10/18 06:28:39;;;;;;;33.30;16.52;;;9.00;98.70;;;;;;5009308;28;20026;-67
2021/10/18 06:31:06;;;;;;;36.33;17.55;;;9.00;98.60;;;;;;5005708;28;20030;-69
2021/10/18 06:33:32;;;;;;;35.80;16.95;;;9.00;98.30;;;;;;4993663;28;20030;-67
2021/10/18 06:35:57;;;;;;;41.28;17.05;;;9.00;98.30;;;;;;4999254;28;20421;-66
2021/10/18 06:38:23;;;;;;;38.60;17.75;;;9.00;98.20;;;;;;5008985;28;20033;-64
2021/10/18 06:40:50;;;;;;;33.15;16.08;;;8.90;98.30;;;;;;5004461;28;21656;-67
2021/10/18 06:43:17;;;;;;;33.53;15.50;;;8.90;98.30;;;;;;5011438;28;20022;-65
2021/10/18 06:45:44;;;;;;;38.83;18.35;;;8.90;98.30;;;;;;5012628;28;20029;-65
2021/10/18 06:48:11;;;;;;;32.75;15.73;;;8.90;98.20;;;;;;4993610;28;20181;-66
2021/10/18 06:50:37;;;;;;;36.25;16.73;;;8.90;98.20;;;;;;5010477;28;20092;-69
2021/10/18 06:53:05;;;;;;;34.55;16.00;;;8.90;98.20;;;;;;4993103;28;20022;-66
2021/10/18 06:55:32;;;;;;;37.33;17.25;;;8.90;98.30;;;;;;5009380;28;20477;-66
2021/10/18 06:57:58;;;;;;;33.40;15.85;;;8.90;98.30;;;;;;5003370;28;20072;-67
2021/10/18 07:00:24;;;;;;;35.45;16.52;;;8.80;98.20;;;;;;5010450;28;20026;-65
2021/10/18 07:02:49;;;;;;;36.65;16.52;;;8.80;98.20;;;;;;5012622;28;20145;-65
2021/10/18 07:05:15;;;;;;;34.75;16.65;;;8.80;98.20;;;;;;5013077;28;20037;-66
2021/10/18 07:07:41;;;;;;;32.15;15.63;;;8.80;98.30;;;;;;5013068;28;20026;-67
2021/10/18 07:10:07;;;;;;;35.80;16.20;;;8.80;98.30;;;;;;5012515;28;20113;-66
2021/10/18 07:12:35;;;;;;;35.28;15.43;;;8.80;98.30;;;;;;5010013;28;20034;-66
2021/10/18 07:15:02;;;;;;;31.67;15.23;;;8.80;98.30;;;;;;5012719;28;20076;-66
2021/10/18 07:17:27;;;;;;;33.65;15.50;;;8.80;98.30;;;;;;5012974;28;20057;-66
2021/10/18 07:19:55;;;;;;;32.85;15.48;;;8.80;98.20;;;;;;5012994;28;20026;-67
2021/10/18 07:22:25;;;;;;;29.15;13.90;;;8.80;98.30;;;;;;5010156;28;20079;-68
2021/10/18 07:24:52;;;;;;;28.77;14.63;;;8.80;98.40;;;;;;5010996;28;20018;-67
2021/10/18 07:27:18;;;;;;;29.08;13.75;;;8.70;98.10;;;;;;4994244;28;20038;-66
2021/10/18 07:29:44;;;;;;;29.20;13.63;;;8.70;98.20;;;;;;5010044;28;20105;-66
2021/10/18 07:32:10;;;;;;;25.90;13.02;;;8.70;98.20;;;;;;4994219;28;20030;-66
2021/10/18 07:34:36;;;;;;;24.98;11.93;;;8.70;98.10;;;;;;5008138;28;20033;-67
2021/10/18 07:37:02;;;;;;;28.38;13.52;;;8.70;98.20;;;;;;5007580;28;20076;-66
2021/10/18 07:39:28;;;;;;;30.13;14.30;;;8.70;98.20;;;;;;5012303;28;20444;-66
2021/10/18 07:41:56;;;;;;;30.33;13.85;;;8.60;98.10;;;;;;5005426;28;20126;-66
2021/10/18 07:44:25;;;;;;;27.60;13.32;;;8.60;98.10;;;;;;5012390;28;20018;-65
2021/10/18 07:46:55;;;;;;;28.45;12.77;;;8.60;98.10;;;;;;4999897;28;20030;-66
2021/10/18 07:49:23;;;;;;;24.15;11.88;;;8.60;98.20;;;;;;5012503;28;20561;-68
2021/10/18 07:51:50;;;;;;;26.08;12.00;;;8.60;98.10;;;;;;5011842;28;20071;-65
2021/10/18 07:54:15;;;;;;;28.75;13.85;;;8.60;98.30;;;;;;5010511;28;20061;-68
2021/10/18 07:56:41;;;;;;;24.92;12.13;;;8.60;98.20;;;;;;5011849;28;20029;-66
2021/10/18 07:59:06;;;;;;;32.13;12.90;;;8.60;98.20;;;;;;5004865;28;20019;-66
2021/10/18 08:01:32;;;;;;;27.17;12.57;;;8.60;98.20;;;;;;4992919;28;20029;-65
2021/10/18 08:03:57;;;;;;;23.13;12.07;;;8.60;98.20;;;;;;4993286;28;20034;-67
2021/10/18 08:06:23;;;;;;;25.42;12.25;;;8.60;98.20;;;;;;4992950;28;20493;-67
2021/10/18 08:08:54;;;;;;;24.73;12.18;;;8.60;98.10;;;;;;5010117;28;20034;-66
2021/10/18 08:11:19;;;;;;;27.55;12.05;;;8.60;98.10;;;;;;5009698;28;20442;-65
2021/10/18 08:13:45;;;;;;;25.10;12.40;;;8.60;98.10;;;;;;5007426;28;20030;-66
2021/10/18 08:16:11;;;;;;;29.88;13.25;;;8.50;98.10;;;;;;5004651;28;20022;-66
2021/10/18 08:18:38;;;;;;;26.30;11.80;;;8.50;98.10;;;;;;5012224;28;20022;-65
2021/10/18 08:21:05;;;;;;;29.55;13.05;;;8.50;98.20;;;;;;5010402;28;20029;-66
2021/10/18 08:23:32;;;;;;;25.38;12.27;;;8.60;98.30;;;;;;5008241;28;20037;-65
2021/10/18 08:25:58;;;;;;;27.83;12.02;;;8.60;98.40;;;;;;5006517;28;20089;-67
2021/10/18 08:28:23;;;;;;;25.08;12.15;;;8.60;98.40;;;;;;4998340;28;20062;-65
2021/10/18 08:30:49;;;;;;;24.80;11.55;;;8.60;98.50;;;;;;5008817;28;20029;-66
2021/10/18 08:33:14;;;;;;;20.35;10.65;;;8.70;98.20;;;;;;4992831;28;20040;-67
2021/10/18 08:35:40;;;;;;;25.98;11.57;;;8.60;98.20;;;;;;5005540;28;20061;-70
2021/10/18 08:38:18;;;;;;;25.42;11.73;;;8.60;98.20;;;;;;5011448;28;20028;-66
2021/10/18 08:45:46;;;;;;;18.20;9.27;;;8.70;98.30;;;;;;5010932;28;20110;-66
2021/10/18 08:48:11;;;;;;;19.98;9.65;;;8.70;98.00;;;;;;5011569;28;20095;-66
2021/10/18 08:50:38;;;;;;;23.15;9.90;;;8.60;98.00;;;;;;5009982;28;20435;-69
2021/10/18 08:53:04;;;;;;;19.83;9.13;;;8.60;98.10;;;;;;5009467;28;20033;-68
2021/10/18 08:55:33;;;;;;;21.45;9.18;;;8.60;98.10;;;;;;5010508;28;20398;-67
2021/10/18 08:57:59;;;;;;;22.30;9.10;;;8.60;98.10;;;;;;5003489;28;20038;-68
2021/10/18 09:00:50;;;;;;;17.83;8.70;;;8.70;98.20;;;;;;4990596;28;20033;-66
2021/10/18 09:03:29;;;;;;;20.25;9.73;;;8.70;98.30;;;;;;5001058;28;20449;-66
2021/10/18 09:06:15;;;;;;;16.92;8.88;;;8.70;98.20;;;;;;5011420;28;20033;-66
2021/10/18 09:08:49;;;;;;;17.30;8.88;;;8.80;98.30;;;;;;5008908;28;20033;-69
2021/10/18 09:11:30;;;;;;;13.82;8.10;;;8.80;98.30;;;;;;5010764;28;20038;-66
2021/10/18 09:13:58;;;;;;;16.88;8.07;;;8.90;98.20;;;;;;5005278;28;20501;-70
2021/10/18 09:16:26;;;;;;;15.45;7.78;;;8.90;98.20;;;;;;5010295;28;20030;-65
2021/10/18 09:19:06;;;;;;;14.60;7.40;;;8.90;98.00;;;;;;5006863;28;20470;-69
2021/10/18 09:21:44;;;;;;;14.05;7.20;;;8.80;98.00;;;;;;5008154;28;20109;-67
2021/10/18 09:24:12;;;;;;;16.95;7.90;;;8.80;98.00;;;;;;5004800;28;20114;-65
2021/10/18 09:26:40;;;;;;;16.13;7.53;;;8.80;98.00;;;;;;4998499;28;20053;-66
2021/10/18 09:29:14;;;;;;;15.00;8.05;;;8.80;98.00;;;;;;5001642;28;20363;-65
2021/10/18 09:31:44;;;;;;;15.57;7.65;;;8.80;98.00;;;;;;5007267;28;20025;-69
2021/10/18 09:34:16;;;;;;;15.63;7.35;;;8.80;98.00;;;;;;5024468;28;20175;-67
2021/10/18 09:36:44;;;;;;;13.70;8.02;;;8.80;98.00;;;;;;5004880;28;20118;-65
2021/10/18 09:39:14;;;;;;;14.25;7.53;;;8.80;98.10;;;;;;5010140;28;20053;-65
2021/10/18 09:42:06;;;;;;;13.40;7.88;;;8.80;98.20;;;;;;5030081;23;20096;-69
2021/10/18 10:53:21;;;;;;;24.02;11.38;;;9.30;97.80;;;;;;5004270;28;20390;-70
2021/10/18 10:55:47;;;;;;;25.45;12.15;;;9.30;97.80;;;;;;5010947;28;20025;-70
2021/10/18 10:58:32;;;;;;;26.35;12.20;;;9.30;97.80;;;;;;5008409;28;20030;-70
2021/10/18 11:00:58;;;;;;;26.52;12.60;;;9.40;97.80;;;;;;5010687;28;20018;-71
2021/10/18 11:03:30;;;;;;;22.35;11.93;;;9.40;97.80;;;;;;4993709;28;20030;-71
2021/10/18 11:06:04;;;;;;;25.83;12.20;;;9.40;97.80;;;;;;5012689;28;20510;-70
2021/10/18 11:08:34;;;;;;;24.77;11.90;;;9.40;97.80;;;;;;5012905;28;20119;-70
2021/10/18 11:11:18;;;;;;;25.17;12.32;;;9.50;97.80;;;;;;5013443;28;20014;-70
2021/10/18 11:14:11;;;;;;;25.45;11.55;;;9.50;97.80;;;;;;4980786;28;20034;-70
2021/10/18 11:16:39;;;;;;;25.08;11.70;;;9.60;97.90;;;;;;4990564;28;20038;-70
2021/10/18 11:19:04;;;;;;;25.95;12.23;;;9.60;97.80;;;;;;5011215;28;20040;-70
2021/10/18 11:21:35;;;;;;;24.65;11.73;;;9.60;97.90;;;;;;4996129;28;20026;-71
2021/10/18 11:24:05;;;;;;;24.00;11.38;;;9.60;97.80;;;;;;4989963;28;20441;-70
2021/10/18 11:26:36;;;;;;;23.77;11.10;;;9.70;97.90;;;;;;5012722;28;20026;-68
2021/10/18 11:29:05;;;;;;;24.10;11.43;;;9.70;97.80;;;;;;5012714;28;20045;-71
2021/10/18 11:31:42;;;;;;;24.13;11.80;;;9.80;97.80;;;;;;5012644;28;20022;-70
2021/10/18 11:34:18;;;;;;;20.70;11.25;;;9.80;97.70;;;;;;5011169;28;20022;-69
2021/10/18 11:36:46;;;;;;;20.70;11.20;;;9.80;97.60;;;;;;5011886;28;20026;-69
2021/10/18 11:39:21;;;;;;;25.35;11.18;;;9.80;97.70;;;;;;4978885;28;20019;-69
2021/10/18 11:42:16;;;;;;;25.20;11.98;;;9.80;97.80;;;;;;5003775;28;20555;-70
2021/10/18 11:44:53;;;;;;;24.05;12.30;;;9.90;97.70;;;;;;4979205;28;20034;-69
2021/10/18 11:47:38;;;;;;;22.73;11.50;;;9.90;97.60;;;;;;4993750;28;20782;-70
2021/10/18 11:50:11;;;;;;;22.73;11.27;;;10.00;97.60;;;;;;5012772;28;20053;-71
2021/10/18 11:52:41;;;;;;;21.75;11.15;;;10.00;97.50;;;;;;4993343;28;20354;-71
2021/10/18 11:55:08;;;;;;;19.95;10.40;;;10.00;97.60;;;;;;5012301;28;20025;-70
2021/10/18 11:57:39;;;;;;;23.45;11.70;;;10.00;97.60;;;;;;4994335;28;20033;-69
2021/10/18 12:00:07;;;;;;;25.90;11.63;;;10.00;97.70;;;;;;5011950;28;20025;-69
2021/10/18 12:02:33;;;;;;;20.27;11.23;;;10.10;97.60;;;;;;5011174;28;20022;-70
2021/10/18 12:05:00;;;;;;;22.48;11.25;;;10.10;97.40;;;;;;5011882;28;20028;-70
2021/10/18 12:07:48;;;;;;;24.38;11.43;;;10.10;97.30;;;;;;5011608;28;20569;-70
2021/10/18 12:10:14;;;;;;;20.95;11.20;;;10.10;97.20;;;;;;5011842;28;20045;-70
2021/10/18 12:12:40;;;;;;;22.55;11.68;;;10.10;97.20;;;;;;5004938;28;20036;-71
2021/10/18 12:15:07;;;;;;;21.73;11.50;;;10.10;97.20;;;;;;5009214;28;20041;-71
2021/10/18 12:17:34;;;;;;;20.33;11.10;;;10.20;97.30;;;;;;5009977;28;20042;-68
2021/10/18 12:20:01;;;;;;;26.40;11.93;;;10.20;97.20;;;;;;4988597;28;20098;-70
2021/10/18 12:22:28;;;;;;;20.65;10.50;;;10.20;97.30;;;;;;4994972;28;20022;-70
2021/10/18 12:25:02;;;;;;;19.95;10.73;;;10.20;97.30;;;;;;4998346;28;20498;-71
2021/10/18 12:27:28;;;;;;;20.88;11.05;;;10.30;97.20;;;;;;4993442;28;20033;-69
2021/10/18 12:29:54;;;;;;;21.02;11.73;;;10.30;97.20;;;;;;5010610;28;20536;-70
2021/10/18 12:32:19;;;;;;;22.02;11.52;;;10.30;97.40;;;;;;5010966;28;20034;-71
2021/10/18 12:34:45;;;;;;;19.92;10.77;;;10.30;97.20;;;;;;4998204;28;20490;-70
2021/10/18 12:37:12;;;;;;;17.80;9.98;;;10.30;97.00;;;;;;4996829;28;20026;-69
2021/10/18 12:39:37;;;;;;;20.70;10.20;;;10.30;97.00;;;;;;4974396;28;20352;-70
2021/10/18 12:42:05;;;;;;;17.48;10.27;;;10.40;97.00;;;;;;5009723;28;20080;-70
2021/10/18 12:44:32;;;;;;;18.95;10.13;;;10.40;96.90;;;;;;4992223;28;20411;-71
2021/10/18 12:46:58;;;;;;;19.75;13.05;;;10.40;96.90;;;;;;4992195;28;20030;-71
2021/10/18 12:49:34;;;;;;;15.88;9.75;;;10.40;97.00;;;;;;5011512;28;20030;-70
2021/10/18 12:52:04;;;;;;;17.20;9.18;;;10.50;96.90;;;;;;5010091;28;20109;-70
2021/10/18 12:54:48;;;;;;;14.52;9.70;;;10.50;96.80;;;;;;4992377;28;20022;-69
2021/10/18 12:57:14;;;;;;;12.82;8.77;;;10.50;96.80;;;;;;4981182;28;20047;-70
2021/10/18 13:00:00;;;;;;;13.65;9.02;;;10.60;96.80;;;;;;5006722;28;20566;-71
2021/10/18 13:02:27;;;;;;;13.95;8.75;;;10.60;96.80;;;;;;5010386;28;20018;-69
2021/10/18 13:05:05;;;;;;;12.30;8.48;;;10.60;96.80;;;;;;5009959;28;20024;-70
2021/10/18 13:07:32;;;;;;;11.63;7.30;;;10.60;96.70;;;;;;4993125;28;20731;-70
2021/10/18 13:09:58;;;;;;;13.05;7.38;;;10.70;96.80;;;;;;5010644;28;20033;-69
2021/10/18 13:12:28;;;;;;;11.20;7.55;;;10.70;96.70;;;;;;5008045;28;20692;-70
2021/10/18 13:14:55;;;;;;;12.57;6.68;;;10.70;96.70;;;;;;4996347;28;20045;-70
2021/10/18 13:17:22;;;;;;;10.15;6.65;;;10.80;96.60;;;;;;4997787;28;20060;-69
2021/10/18 13:19:47;;;;;;;10.43;7.28;;;10.80;96.60;;;;;;5010373;28;20158;-70
2021/10/18 13:22:13;;;;;;;9.75;7.35;;;10.80;96.50;;;;;;5010562;28;20109;-69
2021/10/18 13:24:39;;;;;;;9.73;6.40;;;10.80;96.40;;;;;;5009913;28;20034;-69
2021/10/18 13:27:05;;;;;;;8.95;6.22;;;10.80;96.30;;;;;;5010502;28;20385;-69
2021/10/18 13:29:31;;;;;;;9.45;6.57;;;10.70;96.20;;;;;;5010360;28;20502;-69
2021/10/18 13:31:57;;;;;;;10.43;6.45;;;10.70;96.20;;;;;;4992391;28;20037;-69
2021/10/18 13:34:22;;;;;;;7.60;5.65;;;10.80;96.40;;;;;;5009833;28;20030;-68
2021/10/18 13:36:48;;;;;;;8.98;6.05;;;10.90;96.40;;;;;;5010358;28;20088;-69
2021/10/18 13:39:13;;;;;;;8.80;6.13;;;10.90;96.40;;;;;;5010722;28;20022;-69
2021/10/18 13:41:39;;;;;;;9.40;6.20;;;11.10;96.50;;;;;;5010437;28;20030;-69
2021/10/18 13:44:07;;;;;;;7.97;5.50;;;11.30;96.60;;;;;;4993657;28;20093;-69
2021/10/18 13:46:33;;;;;;;7.68;5.43;;;11.40;96.60;;;;;;5008800;28;20163;-70
2021/10/18 13:48:59;;;;;;;6.88;5.25;;;11.60;96.60;;;;;;5014277;28;20112;-70
2021/10/18 13:51:25;;;;;;;8.98;6.40;;;11.70;96.50;;;;;;5014796;28;20406;-70
2021/10/18 13:53:50;;;;;;;10.10;5.65;;;11.80;96.30;;;;;;5013168;28;20034;-71